Nearby METAR Reports

 

LBSF - Sofia (observato, Bulgaria
Distance from station: ENE 64km
Updated: 16/11/2018 03:30
Overcast
Overcast
 Wind from varies
Wind: varies 4 km/h
Temperature: 1°C
Dew Point: -1°C
Humidity: 87%
Barometer: 1025 hPa
Clouds: Overcast
Visibility: 10 km
Cloud details: Partly Cloudy 1219 m
Overcast 1859 m
2018/11/16 01:30 LBSF 160130Z VRB02KT 9999 SCT040 OVC061 01/M01 Q1025 TEMPO 3000 BR
LWSK - Skopje/Petrovac, Macedonia
Distance from station: WSW 99km
Updated: 16/11/2018 03:30
Partly Cloudy
Partly Cloudy
 Wind from calm
Wind: Calm
Temperature: 1°C
Dew Point: -1°C
Humidity: 87%
Barometer: 1025 hPa
Clouds: Partly Cloudy
Visibility: 10 km
Cloud details: Partly Cloudy 2530 m
2018/11/16 01:30 LWSK 160130Z 00000KT 9999 SCT083 01/M01 Q1025 NOSIG
 
LYNI - Nis, Yugoslavia
Distance from station: NNW 127km
Updated: 16/11/2018 03:30
Mostly Cloudy
Mostly Cloudy
 Wind from E
Wind: E 6 km/h
Temperature: 4°C
Dew Point: 1°C
Humidity: 81%
Barometer: 1026 hPa
Clouds: Mostly Cloudy
Visibility: 10 km
Cloud details: Mostly Cloudy 1524 m
2018/11/16 01:30 LYNI 160130Z 10003KT 060V150 9999 BKN050 04/01 Q1026 NOSIG
BKPR - Prishtina, Yugoslavia
Distance from station: W 141km
Updated: 16/11/2018 03:30
Partly Cloudy
Partly Cloudy
 Wind from varies
Wind: varies 4 km/h
Temperature: 0°C
Dew Point: -3°C
Humidity: 80%
Barometer: 1024 hPa
Clouds: Partly Cloudy
Visibility: 10 km
Cloud details: Partly Cloudy 2134 m
2018/11/16 01:30 BKPR 160130Z VRB02KT 9999 SCT070 00/M03 Q1024 NOSIG RMK 17010095